createdAt,value
2018-04-10T00:00:05.989Z,43.40
2018-04-10T00:02:33.435Z,43.20
2018-04-10T00:05:00.989Z,43.10
2018-04-10T00:07:28.440Z,43.20
2018-04-10T00:09:56.124Z,43.30
2018-04-10T00:12:23.547Z,43.40
2018-04-10T00:14:50.976Z,43.10
2018-04-10T00:17:19.176Z,43.40
2018-04-10T00:19:46.609Z,42.90
2018-04-10T00:22:14.924Z,43.10
2018-04-10T00:24:42.347Z,43.00
2018-04-10T00:27:10.539Z,43.30
2018-04-10T00:29:37.987Z,43.20
2018-04-10T00:32:06.199Z,43.20
2018-04-10T00:34:33.630Z,43.10
2018-04-10T00:37:01.271Z,43.40
2018-04-10T00:39:29.475Z,43.50
2018-04-10T00:41:56.897Z,44.00
2018-04-10T00:44:25.103Z,44.00
2018-04-10T00:46:52.560Z,43.80
2018-04-10T00:49:20.035Z,43.90
2018-04-10T00:51:47.477Z,44.00
2018-04-10T00:54:14.920Z,44.00
2018-04-10T00:56:42.350Z,43.90
2018-04-10T00:59:10.561Z,44.30
2018-04-10T01:01:38.009Z,44.30
2018-04-10T01:04:05.435Z,44.60
2018-04-10T01:06:33.683Z,45.30
2018-04-10T01:09:01.112Z,44.70
2018-04-10T01:11:28.581Z,44.50
2018-04-10T01:13:56.017Z,44.80
2018-04-10T01:16:23.463Z,44.60
2018-04-10T01:18:50.888Z,44.70
2018-04-10T01:21:18.325Z,44.60
2018-04-10T01:23:46.068Z,44.70
2018-04-10T01:26:13.492Z,44.60
2018-04-10T01:28:40.922Z,44.60
2018-04-10T01:31:09.138Z,44.90
2018-04-10T01:33:36.565Z,44.80
2018-04-10T01:36:04.804Z,45.00
2018-04-10T01:38:32.228Z,45.00
2018-04-10T01:40:59.680Z,44.80
2018-04-10T01:43:27.114Z,45.00
2018-04-10T01:45:55.537Z,45.20
2018-04-10T01:48:22.961Z,45.20
2018-04-10T01:50:50.396Z,45.30
2018-04-10T01:53:18.604Z,45.50
2018-04-10T01:55:46.043Z,45.50
2018-04-10T01:58:13.487Z,45.60
2018-04-10T02:00:42.584Z,45.70
2018-04-10T02:03:10.891Z,45.70
2018-04-10T02:05:38.296Z,45.70
2018-04-10T02:08:05.738Z,45.90
2018-04-10T02:10:33.170Z,46.00
2018-04-10T02:13:00.619Z,46.00
2018-04-10T02:15:28.053Z,46.10
2018-04-10T02:17:55.522Z,46.30
2018-04-10T02:20:22.986Z,46.40
2018-04-10T02:22:50.461Z,46.30
2018-04-10T02:25:17.899Z,46.60
2018-04-10T02:27:45.477Z,46.60
2018-04-10T02:30:12.901Z,46.60
2018-04-10T02:32:40.333Z,46.50
2018-04-10T02:35:08.532Z,46.90
2018-04-10T02:37:35.968Z,46.60
2018-04-10T02:40:04.159Z,46.70
2018-04-10T02:42:31.632Z,46.70
2018-04-10T02:44:59.100Z,46.90
2018-04-10T02:47:26.527Z,46.80
2018-04-10T02:49:53.971Z,47.10
2018-04-10T02:52:22.180Z,47.10
2018-04-10T02:54:49.607Z,47.10
2018-04-10T02:57:17.805Z,47.30
2018-04-10T02:59:45.244Z,47.30
2018-04-10T03:02:12.668Z,47.20
2018-04-10T03:04:40.300Z,47.30
2018-04-10T03:07:07.744Z,47.40
2018-04-10T03:09:35.189Z,47.80
2018-04-10T03:12:02.622Z,47.60
2018-04-10T03:14:30.817Z,47.90
2018-04-10T03:16:58.258Z,47.80
2018-04-10T03:19:26.678Z,48.00
2018-04-10T03:21:54.116Z,47.90
2018-04-10T03:24:21.535Z,48.20
2018-04-10T03:26:49.972Z,48.30
2018-04-10T03:29:17.411Z,48.30
2018-04-10T03:31:44.840Z,48.50
2018-04-10T03:34:13.042Z,48.50
2018-04-10T03:36:40.749Z,48.40
2018-04-10T03:39:08.143Z,49.40
2018-04-10T03:41:35.571Z,49.30
2018-04-10T03:44:04.006Z,49.40
2018-04-10T03:46:31.439Z,49.00
2018-04-10T03:48:58.861Z,49.30
2018-04-10T03:51:27.404Z,49.40
2018-04-10T03:53:54.842Z,49.30
2018-04-10T03:56:22.273Z,49.80
2018-04-10T03:58:50.696Z,49.60
2018-04-10T04:01:18.129Z,49.60
2018-04-10T04:03:45.551Z,49.70
2018-04-10T04:06:13.753Z,49.90
2018-04-10T04:08:41.180Z,49.90
2018-04-10T04:11:09.383Z,50.20
2018-04-10T04:13:36.851Z,50.20
2018-04-10T04:16:04.318Z,50.20
2018-04-10T04:21:52.747Z,50.20
2018-04-10T04:24:21.063Z,50.10
2018-04-10T04:26:48.484Z,50.00
2018-04-10T04:29:16.682Z,50.00
2018-04-10T04:31:44.120Z,50.00
2018-04-10T04:34:11.560Z,50.10
2018-04-10T04:36:39.761Z,50.30
2018-04-10T04:39:07.212Z,50.20
2018-04-10T04:41:34.827Z,50.40
2018-04-10T04:44:02.266Z,50.40
2018-04-10T04:46:29.701Z,50.60
2018-04-10T04:48:57.145Z,50.80
2018-04-10T04:51:24.594Z,50.80
2018-04-10T04:53:52.025Z,62.60
2018-04-10T04:56:19.599Z,54.50
2018-04-10T04:58:47.809Z,53.60
2018-04-10T05:01:15.250Z,53.60
2018-04-10T05:03:42.663Z,53.40
2018-04-10T05:06:10.296Z,53.30
2018-04-10T05:08:37.743Z,53.10
2018-04-10T05:11:05.181Z,53.60
2018-04-10T05:13:32.658Z,53.10
2018-04-10T05:16:00.079Z,53.10
2018-04-10T05:18:27.680Z,53.20
2018-04-10T05:20:55.119Z,52.90
2018-04-10T05:23:22.564Z,53.30
2018-04-10T05:25:50.256Z,53.10
2018-04-10T05:28:17.686Z,53.00
2018-04-10T05:30:45.134Z,53.00
2018-04-10T05:33:13.344Z,52.80
2018-04-10T05:35:40.848Z,52.70
2018-04-10T05:38:08.244Z,53.00
2018-04-10T05:40:35.699Z,52.70
2018-04-10T05:43:03.145Z,52.70
2018-04-10T05:45:30.596Z,52.60
2018-04-10T05:47:58.020Z,52.50
2018-04-10T05:50:26.245Z,53.20
2018-04-10T05:52:54.685Z,52.60
2018-04-10T05:55:22.886Z,52.20
2018-04-10T05:57:50.348Z,52.20
2018-04-10T06:00:17.805Z,52.20
2018-04-10T06:02:45.232Z,52.30
2018-04-10T06:05:13.469Z,52.30
2018-04-10T06:07:40.927Z,52.30
2018-04-10T06:10:08.365Z,52.60
2018-04-10T06:12:36.016Z,52.60
2018-04-10T06:15:03.444Z,53.10
2018-04-10T06:17:31.847Z,52.30
2018-04-10T06:19:59.334Z,52.30
2018-04-10T06:22:26.776Z,52.30
2018-04-10T06:24:54.441Z,52.00
2018-04-10T06:27:21.867Z,52.40
2018-04-10T06:29:49.308Z,52.10
2018-04-10T06:32:17.548Z,52.10
2018-04-10T06:34:44.981Z,52.00
2018-04-10T06:37:12.459Z,52.90
2018-04-10T06:39:39.863Z,52.70
2018-04-10T06:42:07.329Z,52.90
2018-04-10T06:44:34.831Z,52.80
2018-04-10T06:47:02.483Z,52.80
2018-04-10T06:49:29.916Z,52.40
2018-04-10T06:51:57.360Z,52.20
2018-04-10T06:54:24.834Z,52.60
2018-04-10T06:56:52.264Z,52.20
2018-04-10T06:59:19.741Z,52.50
2018-04-10T07:01:47.193Z,52.70
2018-04-10T07:04:14.700Z,53.20
2018-04-10T07:06:42.133Z,54.30
2018-04-10T07:09:09.594Z,55.40
2018-04-10T07:11:37.028Z,56.10
2018-04-10T07:14:04.710Z,56.30
2018-04-10T07:16:32.680Z,55.80
2018-04-10T07:19:00.116Z,56.00
2018-04-10T07:21:27.568Z,56.20
2018-04-10T07:23:55.032Z,55.80
2018-04-10T07:26:22.506Z,55.00
2018-04-10T07:28:49.941Z,55.60
2018-04-10T07:31:17.512Z,55.80
2018-04-10T07:33:44.954Z,56.50
2018-04-10T07:36:12.388Z,56.30
2018-04-10T07:38:39.838Z,56.80
2018-04-10T07:41:08.053Z,56.60
2018-04-10T07:43:35.493Z,56.40
2018-04-10T07:46:02.957Z,56.60
2018-04-10T07:48:31.144Z,56.60
2018-04-10T07:50:58.586Z,56.60
2018-04-10T07:53:26.025Z,56.50
2018-04-10T07:55:53.472Z,55.90
2018-04-10T07:58:20.908Z,55.70
2018-04-10T08:00:48.382Z,55.20
2018-04-10T08:03:15.792Z,55.40
2018-04-10T08:05:43.244Z,55.30
2018-04-10T08:08:11.632Z,55.00
2018-04-10T08:10:39.090Z,55.20
2018-04-10T08:13:06.541Z,55.10
2018-04-10T08:15:33.981Z,54.80
2018-04-10T08:18:01.457Z,55.50
2018-04-10T08:20:28.883Z,54.70
2018-04-10T08:22:56.340Z,54.60
2018-04-10T08:25:23.784Z,54.90
2018-04-10T08:27:51.269Z,54.80
2018-04-10T08:30:18.705Z,54.80
2018-04-10T08:32:46.148Z,55.10
2018-04-10T08:35:14.364Z,55.10
2018-04-10T08:37:41.821Z,55.00
2018-04-10T08:40:09.264Z,55.10
2018-04-10T08:42:36.705Z,55.00
2018-04-10T08:45:04.514Z,55.00
2018-04-10T08:47:31.968Z,54.90
2018-04-10T08:49:59.408Z,54.60
2018-04-10T08:52:26.864Z,54.70
2018-04-10T08:54:54.297Z,54.70
2018-04-10T08:57:21.760Z,55.00
2018-04-10T08:59:49.209Z,54.60
2018-04-10T09:02:16.647Z,54.50
2018-04-10T09:04:44.950Z,54.50
2018-04-10T09:07:12.492Z,54.40
2018-04-10T09:09:39.932Z,54.10
2018-04-10T09:12:08.360Z,53.80
2018-04-10T09:17:09.829Z,54.00
2018-04-10T09:19:37.272Z,54.10
2018-04-10T09:22:04.743Z,53.60
2018-04-10T09:24:32.189Z,54.10
2018-04-10T09:26:59.663Z,53.80
2018-04-10T09:29:27.118Z,53.60
2018-04-10T09:31:54.569Z,53.70
2018-04-10T09:34:22.026Z,53.40
2018-04-10T09:36:49.486Z,53.30
2018-04-10T09:39:17.063Z,53.20
2018-04-10T09:41:44.496Z,53.70
2018-04-10T09:44:11.938Z,53.40
2018-04-10T09:46:39.402Z,53.00
2018-04-10T09:49:06.833Z,52.80
2018-04-10T09:51:34.277Z,52.90
2018-04-10T09:54:02.513Z,52.50
2018-04-10T09:56:29.988Z,52.40
2018-04-10T09:58:57.412Z,54.00
2018-04-10T10:01:24.871Z,52.40
2018-04-10T10:03:52.320Z,51.90
2018-04-10T10:06:19.771Z,52.50
2018-04-10T10:08:47.225Z,52.10
2018-04-10T10:11:14.681Z,51.80
2018-04-10T10:13:42.151Z,51.70
2018-04-10T10:16:09.667Z,51.80
2018-04-10T10:18:37.904Z,52.20
2018-04-10T10:21:05.349Z,52.10
2018-04-10T10:23:32.908Z,52.10
2018-04-10T10:26:00.366Z,52.20
2018-04-10T10:28:27.780Z,52.10
2018-04-10T10:30:55.233Z,52.30
2018-04-10T10:33:22.664Z,51.00
2018-04-10T10:35:50.100Z,51.40
2018-04-10T10:38:18.319Z,50.30
2018-04-10T10:40:45.750Z,50.30
2018-04-10T10:43:13.196Z,50.20
2018-04-10T10:45:40.628Z,49.90
2018-04-10T10:48:08.081Z,48.90
2018-04-10T10:50:35.536Z,49.50
2018-04-10T10:53:02.956Z,50.00
2018-04-10T10:55:30.415Z,50.20
2018-04-10T10:57:57.856Z,50.80
2018-04-10T11:00:26.096Z,51.70
2018-04-10T11:02:53.541Z,51.70
2018-04-10T11:05:20.968Z,51.70
2018-04-10T11:07:48.491Z,52.20
2018-04-10T11:10:15.916Z,52.20
2018-04-10T11:12:43.353Z,52.90
2018-04-10T11:15:10.808Z,52.70
2018-04-10T11:17:38.244Z,52.30
2018-04-10T11:20:05.948Z,52.70
2018-04-10T11:22:33.392Z,52.50
2018-04-10T11:25:00.880Z,51.50
2018-04-10T11:27:28.331Z,52.40
2018-04-10T11:29:55.780Z,51.10
2018-04-10T11:32:23.212Z,50.90
2018-04-10T11:34:50.657Z,50.60
2018-04-10T11:37:18.109Z,49.90
2018-04-10T11:39:45.568Z,50.60
2018-04-10T11:42:13.028Z,50.30
2018-04-10T11:44:41.248Z,48.60
2018-04-10T11:47:08.680Z,48.50
2018-04-10T11:49:36.146Z,50.60
2018-04-10T11:52:03.595Z,50.10
2018-04-10T11:54:31.061Z,50.20
2018-04-10T11:56:58.552Z,50.20
2018-04-10T11:59:25.993Z,50.20
2018-04-10T12:01:54.956Z,49.30
2018-04-10T12:04:22.416Z,49.30
2018-04-10T12:06:49.857Z,50.60
2018-04-10T12:09:17.311Z,49.80
2018-04-10T12:11:44.761Z,50.20
2018-04-10T12:14:12.224Z,49.40
2018-04-10T12:16:39.810Z,50.10
2018-04-10T12:19:07.274Z,50.00
2018-04-10T12:21:34.704Z,50.60
2018-04-10T12:24:02.351Z,51.10
2018-04-10T12:26:29.794Z,50.30
2018-04-10T12:28:57.993Z,50.50
2018-04-10T12:31:25.432Z,51.10
2018-04-10T12:33:52.883Z,51.00
2018-04-10T12:36:20.324Z,50.10
2018-04-10T12:38:48.540Z,50.20
2018-04-10T12:41:15.976Z,50.10
2018-04-10T12:43:43.430Z,49.50
2018-04-10T12:46:11.029Z,49.90
2018-04-10T12:48:38.472Z,50.90
2018-04-10T12:51:05.912Z,50.70
2018-04-10T12:53:33.396Z,49.60
2018-04-10T12:56:00.869Z,48.70
2018-04-10T12:58:28.288Z,49.20
2018-04-10T13:00:55.762Z,49.30
2018-04-10T13:03:23.195Z,49.90
2018-04-10T13:05:50.645Z,48.80
2018-04-10T13:08:18.089Z,47.30
2018-04-10T13:10:46.306Z,47.20
2018-04-10T13:13:13.759Z,47.20
2018-04-10T13:15:41.243Z,46.80
2018-04-10T13:18:08.784Z,47.80
2018-04-10T13:20:36.243Z,47.10
2018-04-10T13:23:03.668Z,46.80
2018-04-10T13:25:31.111Z,46.90
2018-04-10T13:27:58.555Z,45.30
2018-04-10T13:30:26.766Z,46.80
2018-04-10T13:32:54.205Z,46.10
2018-04-10T13:35:21.660Z,45.30
2018-04-10T13:37:49.107Z,45.00
2018-04-10T13:40:17.833Z,43.70
2018-04-10T13:42:45.277Z,43.60
2018-04-10T13:45:12.737Z,42.50
2018-04-10T13:47:40.213Z,43.30
2018-04-10T13:50:07.680Z,42.50
2018-04-10T13:52:35.112Z,42.50
2018-04-10T13:55:02.790Z,42.80
2018-04-10T13:57:30.231Z,42.90
2018-04-10T13:59:57.670Z,43.80
2018-04-10T14:02:25.113Z,44.50
2018-04-10T14:04:53.339Z,42.70
2018-04-10T14:07:20.772Z,42.70
2018-04-10T14:09:48.327Z,43.20
2018-04-10T14:12:15.758Z,43.00
2018-04-10T14:14:43.955Z,42.60
2018-04-10T14:17:11.401Z,42.70
2018-04-10T14:19:38.827Z,42.70
2018-04-10T14:22:06.275Z,43.20
2018-04-10T14:24:33.704Z,43.40
2018-04-10T14:27:01.140Z,42.20
2018-04-10T14:29:28.584Z,43.10
2018-04-10T14:31:56.020Z,42.20
2018-04-10T14:34:24.248Z,42.60
2018-04-10T14:36:51.721Z,42.50
2018-04-10T14:39:19.136Z,42.30
2018-04-10T14:41:46.559Z,42.20
2018-04-10T14:44:14.773Z,41.40
2018-04-10T14:46:42.215Z,41.40
2018-04-10T14:49:09.648Z,42.10
2018-04-10T14:51:37.881Z,43.80
2018-04-10T14:54:05.329Z,43.80
2018-04-10T14:56:32.876Z,45.00
2018-04-10T14:59:00.303Z,44.40
2018-04-10T15:01:28.492Z,44.30
2018-04-10T15:03:55.941Z,44.30
2018-04-10T15:06:23.377Z,46.00
2018-04-10T15:08:51.577Z,44.20
2018-04-10T15:11:19.012Z,44.20
2018-04-10T15:13:47.232Z,44.00
2018-04-10T15:16:14.676Z,43.90
2018-04-10T15:18:42.129Z,44.20
2018-04-10T15:21:09.716Z,44.10
2018-04-10T15:23:37.168Z,44.60
2018-04-10T15:26:04.593Z,45.80
2018-04-10T15:28:32.027Z,44.70
2018-04-10T15:31:00.244Z,44.50
2018-04-10T15:33:27.685Z,44.50
2018-04-10T15:35:55.117Z,44.00
2018-04-10T15:38:23.324Z,43.20
2018-04-10T15:40:50.747Z,43.10
2018-04-10T15:43:18.949Z,42.90
2018-04-10T15:45:46.393Z,42.80
2018-04-10T15:48:13.834Z,42.40
2018-04-10T15:50:42.052Z,41.10
2018-04-10T15:53:09.486Z,41.00
2018-04-10T15:55:36.932Z,41.20
2018-04-10T15:58:04.387Z,41.00
2018-04-10T16:00:32.601Z,40.30
2018-04-10T16:03:00.043Z,40.30
2018-04-10T16:05:27.500Z,41.40
2018-04-10T16:07:54.921Z,41.90
2018-04-10T16:10:23.200Z,42.50
2018-04-10T16:12:51.436Z,42.30
2018-04-10T16:15:18.875Z,42.30
2018-04-10T16:17:46.381Z,42.60
2018-04-10T16:20:13.827Z,43.80
2018-04-10T16:22:41.559Z,44.20
2018-04-10T16:25:08.994Z,44.60
2018-04-10T16:27:36.425Z,45.00
2018-04-10T16:30:04.629Z,44.70
2018-04-10T16:32:32.078Z,44.60
2018-04-10T16:34:59.510Z,45.20
2018-04-10T16:37:28.732Z,45.70
2018-04-10T16:39:56.197Z,45.70
2018-04-10T16:42:23.669Z,45.50
2018-04-10T16:44:52.104Z,45.70
2018-04-10T16:47:20.308Z,45.70
2018-04-10T16:49:47.749Z,45.70
2018-04-10T16:52:15.188Z,45.90
2018-04-10T16:54:43.399Z,46.50
2018-04-10T16:57:10.831Z,47.10
2018-04-10T16:59:38.256Z,46.40
2018-04-10T17:02:05.697Z,46.60
2018-04-10T17:04:33.137Z,47.30
2018-04-10T17:07:00.573Z,47.20
2018-04-10T17:09:27.999Z,46.90
2018-04-10T17:11:56.294Z,54.10
2018-04-10T17:14:24.492Z,50.50
2018-04-10T17:16:51.925Z,51.10
2018-04-10T17:19:19.381Z,49.80
2018-04-10T17:21:46.862Z,46.50
2018-04-10T17:24:14.313Z,47.70
2018-04-10T17:26:41.745Z,46.50
2018-04-10T17:29:09.209Z,46.90
2018-04-10T17:31:37.396Z,47.20
2018-04-10T17:34:04.825Z,47.20
2018-04-10T17:36:32.272Z,46.80
2018-04-10T17:39:00.474Z,46.80
2018-04-10T17:41:27.892Z,46.80
2018-04-10T17:43:56.113Z,48.00
2018-04-10T17:46:23.551Z,47.90
2018-04-10T17:48:51.755Z,47.70
2018-04-10T17:51:19.203Z,47.70
2018-04-10T17:53:46.633Z,47.90
2018-04-10T17:56:14.067Z,48.20
2018-04-10T17:58:41.495Z,48.00
2018-04-10T18:01:08.945Z,48.20
2018-04-10T18:06:32.105Z,48.30
2018-04-10T18:08:59.633Z,48.40
2018-04-10T18:11:27.884Z,49.00
2018-04-10T18:13:55.414Z,49.70
2018-04-10T18:16:22.942Z,48.90
2018-04-10T18:18:50.446Z,49.00
2018-04-10T18:21:17.901Z,49.00
2018-04-10T18:23:45.365Z,49.10
2018-04-10T18:26:13.705Z,49.40
2018-04-10T18:28:41.198Z,49.40
2018-04-10T18:31:08.692Z,49.20
2018-04-10T18:33:36.232Z,49.40
2018-04-10T18:36:03.907Z,50.00
2018-04-10T18:38:31.430Z,50.10
2018-04-10T18:40:58.946Z,50.50
2018-04-10T18:43:26.749Z,50.40
2018-04-10T18:45:54.230Z,51.10
2018-04-10T18:48:21.747Z,51.30
2018-04-10T18:50:49.293Z,50.90
2018-04-10T18:53:17.308Z,50.90
2018-04-10T18:55:44.819Z,50.80
2018-04-10T18:58:12.435Z,51.00
2018-04-10T19:00:39.989Z,51.70
2018-04-10T19:03:07.750Z,52.50
2018-04-10T19:05:35.238Z,53.70
2018-04-10T19:08:02.728Z,53.90
2018-04-10T19:10:30.233Z,54.10
2018-04-10T19:12:57.758Z,54.70
2018-04-10T19:15:27.555Z,55.10
2018-04-10T19:17:55.103Z,55.00
2018-04-10T19:20:22.658Z,56.50
2018-04-10T19:22:50.199Z,58.00
2018-04-10T19:25:17.721Z,58.90
2018-04-10T19:27:45.233Z,59.70
2018-04-10T19:30:12.831Z,60.50
2018-04-10T19:32:40.574Z,61.60
2018-04-10T19:35:08.838Z,62.90
2018-04-10T19:37:36.390Z,62.70
2018-04-10T19:40:03.940Z,63.30
2018-04-10T19:42:31.483Z,63.80
2018-04-10T19:44:59.057Z,63.50
2018-04-10T19:47:26.549Z,64.30
2018-04-10T19:49:54.123Z,64.70
2018-04-10T19:52:21.635Z,64.80
2018-04-10T19:54:49.272Z,65.40
2018-04-10T19:57:26.680Z,65.40
2018-04-10T20:02:26.569Z,65.40
2018-04-10T20:04:54.784Z,65.70
2018-04-10T20:07:22.223Z,65.00
2018-04-10T20:09:49.673Z,65.00
2018-04-10T20:12:17.914Z,65.50
2018-04-10T20:14:45.380Z,65.40
2018-04-10T20:17:13.026Z,66.00
2018-04-10T20:19:40.453Z,66.00
2018-04-10T20:22:07.904Z,66.00
2018-04-10T20:24:35.340Z,66.60
2018-04-10T20:27:02.808Z,66.80
2018-04-10T20:29:30.239Z,66.50
2018-04-10T20:31:58.468Z,66.70
2018-04-10T20:34:26.191Z,66.50
2018-04-10T20:36:53.632Z,67.20
2018-04-10T20:39:21.834Z,67.70
2018-04-10T20:41:49.273Z,67.60
2018-04-10T20:44:16.735Z,67.70
2018-04-10T20:46:44.174Z,68.10
2018-04-10T20:49:11.641Z,68.20
2018-04-10T20:51:39.868Z,68.30
2018-04-10T20:54:07.336Z,68.20
2018-04-10T20:56:35.035Z,67.90
2018-04-10T20:59:03.228Z,68.10
2018-04-10T21:01:30.665Z,68.00
2018-04-10T21:03:58.881Z,68.30
2018-04-10T21:06:26.328Z,68.20
2018-04-10T21:08:53.794Z,68.40
2018-04-10T21:11:21.245Z,68.40
2018-04-10T21:13:48.676Z,68.20
2018-04-10T21:16:16.125Z,68.20
2018-04-10T21:18:44.323Z,68.40
2018-04-10T21:21:11.754Z,68.40
2018-04-10T21:23:39.981Z,67.80
2018-04-10T21:26:07.637Z,67.70
2018-04-10T21:28:35.078Z,67.80
2018-04-10T21:31:02.571Z,67.90
2018-04-10T21:33:30.221Z,67.60
2018-04-10T21:35:57.654Z,67.60
2018-04-10T21:38:25.086Z,67.70
2018-04-10T21:40:53.287Z,68.20
2018-04-10T21:43:26.485Z,68.20
2018-04-10T21:45:53.941Z,67.70
2018-04-10T21:48:21.390Z,68.00
2018-04-10T21:50:48.829Z,68.10
2018-04-10T21:53:16.282Z,68.30
2018-04-10T21:55:43.729Z,68.60
2018-04-10T21:58:11.942Z,68.80
2018-04-10T22:00:39.386Z,68.70
2018-04-10T22:03:07.029Z,69.00
2018-04-10T22:05:34.464Z,69.90
2018-04-10T22:08:02.676Z,69.40
2018-04-10T22:10:30.126Z,69.40
2018-04-10T22:12:57.602Z,69.20
2018-04-10T22:15:25.025Z,69.50
2018-04-10T22:17:52.509Z,69.80
2018-04-10T22:20:19.901Z,70.00
2018-04-10T22:22:47.348Z,70.30
2018-04-10T22:25:14.827Z,70.60
2018-04-10T22:27:42.253Z,70.40
2018-04-10T22:30:09.689Z,70.60
2018-04-10T22:32:37.109Z,70.60
2018-04-10T22:35:04.542Z,70.70
2018-04-10T22:37:32.764Z,71.50
2018-04-10T22:40:00.210Z,71.30
2018-04-10T22:42:27.648Z,71.70
2018-04-10T22:44:55.089Z,71.10
2018-04-10T22:47:23.289Z,71.20
2018-04-10T22:49:50.740Z,71.10
2018-04-10T22:52:18.179Z,70.80
2018-04-10T22:54:45.614Z,71.20
2018-04-10T22:57:13.813Z,71.50
2018-04-10T22:59:41.259Z,72.00
2018-04-10T23:02:09.469Z,72.30
2018-04-10T23:04:36.908Z,72.20
2018-04-10T23:07:04.360Z,71.80
2018-04-10T23:09:32.561Z,72.90
2018-04-10T23:12:00.027Z,72.90
2018-04-10T23:14:27.708Z,72.90
2018-04-10T23:16:55.156Z,73.00
2018-04-10T23:19:22.589Z,72.90
2018-04-10T23:21:50.029Z,72.70
2018-04-10T23:35:43.308Z,72.90
2018-04-10T23:38:10.775Z,72.80
2018-04-10T23:40:38.222Z,73.10
2018-04-10T23:43:05.656Z,73.50
2018-04-10T23:45:33.878Z,74.30
2018-04-10T23:48:01.546Z,74.20
2018-04-10T23:50:28.982Z,74.80
2018-04-10T23:52:56.412Z,75.20
2018-04-10T23:55:23.927Z,75.60
2018-04-10T23:57:52.393Z,75.70
